History for KNYNEWYO805

Frying Pan NYC, New York, NY — Current Conditions
Daily Summary for December 16, 2018
  Current: High: Low: Average:
Temperature: 39.4°F 46.6°F 38.8°F 42.6°F
Dew Point: 39.0°F 46.0°F -40.0°F 40.4°F
Humidity: 99% 99% 97% 99%
Wind Speed: 3.8mph 18.6mph - 6.2mph
Wind Gust: 9.4mph 18.6mph - -
Wind: East - - East
Pressure: 29.14in 29.44in 29.14in -
Precipitation: 0.00in      
Statistics for the rest of the month
    High: Low: Average:
Temperature:   52.3°F 25.9°F 38.6°F
Dew Point:   52.0°F -40.0°F 35.2°F
Humidity:   99.0% 61.0% 88.3%
Wind Speed:   18.6mph from the NW - 3.5mph
Wind Gust:   18.6mph from the NE - -
Wind:   - - SSE
Pressure:   29.90in 28.91in -
Precipitation:   0.00in    
KNYNEWYO805 Weather Graph
Tabular Data for December 16, 2018
Time Temp. Windchill Dew Point Pressure Wind Gust Humidity Rainfall Solar Radiation
00:04 46.4°F - 46°F 29.41in 11.9mph 99% 0in -9999.00 watts/m^2
00:09 46.4°F - 46°F 29.41in 11.9mph 99% 0in -9999.00 watts/m^2
00:14 46.4°F - 46°F 29.40in 11.9mph 99% 0in -9999.00 watts/m^2
00:19 46.2°F 40.7°F 45.9°F 29.40in 11.9mph 99% 0in -9999.00 watts/m^2
00:24 46.2°F 42.7°F 45.9°F 29.39in 16.8mph 99% 0in -9999.00 watts/m^2
00:29 46°F 40.2°F 45.7°F 29.39in 16.8mph 99% 0in -9999.00 watts/m^2
00:34 45.9°F 40.1°F 45.5°F 29.41in 16.8mph 99% 0in -9999.00 watts/m^2
00:39 45.9°F 40.1°F 45.5°F 29.41in 16.8mph 99% 0in -9999.00 watts/m^2
00:44 45.7°F 39.9°F 45.3°F 29.42in 16.8mph 99% 0in -9999.00 watts/m^2
00:49 45.7°F 42.8°F 45.3°F 29.42in 16.8mph 99% 0in -9999.00 watts/m^2
00:54 45.7°F 42.1°F 45.3°F 29.40in 18.6mph 99% 0in -9999.00 watts/m^2
00:59 45.5°F 40.0°F 45.1°F 29.40in 18.6mph 99% 0in -9999.00 watts/m^2
01:04 45.5°F 41.6°F 45.1°F 29.40in 18.6mph 99% 0in -9999.00 watts/m^2
01:09 45.3°F 42.8°F 45°F 29.39in 18.6mph 99% 0in -9999.00 watts/m^2
01:14 45.1°F 42.5°F 44.8°F 29.40in 18.6mph 99% 0in -9999.00 watts/m^2
01:19 45.1°F 40.2°F 44.8°F 29.39in 18.6mph 99% 0in -9999.00 watts/m^2
01:24 45°F 39.4°F 44.6°F 29.38in 18.6mph 99% 0in -9999.00 watts/m^2
01:29 45°F 42.0°F 44.2°F 29.40in 18.6mph 97% 0in -9999.00 watts/m^2
01:34 45°F 39.2°F 44.6°F 29.40in 18.6mph 99% 0in -9999.00 watts/m^2
01:39 44.8°F 38.9°F 44.4°F 29.40in 18.6mph 99% 0in -9999.00 watts/m^2
01:44 44.8°F 39.8°F 44.4°F 29.40in 15mph 99% 0in -9999.00 watts/m^2
01:49 44.8°F 42.2°F 44.2°F 29.41in 15mph 98% 0in -9999.00 watts/m^2
01:54 44.8°F 43.0°F 44.4°F 29.41in 15mph 99% 0in -9999.00 watts/m^2
01:59 44.6°F 38.9°F 44.2°F 29.41in 15mph 99% 0in -9999.00 watts/m^2
02:04 44.6°F 42.0°F 44.2°F 29.40in 15mph 99% 0in -9999.00 watts/m^2
02:09 44.4°F 39.6°F 44.1°F 29.40in 15mph 99% 0in -9999.00 watts/m^2
02:14 44.4°F 38.7°F 44.1°F 29.40in 15mph 99% 0in -9999.00 watts/m^2
02:19 44.4°F 42.2°F 44.1°F 29.41in 15mph 99% 0in -9999.00 watts/m^2
02:24 44.2°F 37.6°F 43.9°F 29.41in 14.3mph 99% 0in -9999.00 watts/m^2
02:29 44.2°F 37.6°F 43.9°F 29.41in 14.3mph 99% 0in -9999.00 watts/m^2
02:34 44.2°F 40.0°F 43.9°F 29.41in 14.3mph 99% 0in -9999.00 watts/m^2
02:39 44.2°F 40.0°F 43.9°F 29.42in 14.3mph 99% 0in -9999.00 watts/m^2
02:44 44.1°F 40.9°F 43.7°F 29.42in 13.6mph 99% 0in -9999.00 watts/m^2
02:49 44.1°F 38.0°F 43.7°F 29.42in 13.6mph 99% 0in -9999.00 watts/m^2
02:54 44.1°F 38.0°F 43.7°F 29.43in 13.6mph 99% 0in -9999.00 watts/m^2
02:59 44.1°F 40.9°F 43.7°F 29.44in 13.6mph 99% 0in -9999.00 watts/m^2
03:04 44.1°F - 43.7°F 29.44in 13.6mph 99% 0in -9999.00 watts/m^2
03:09 43.9°F - 43.5°F 29.43in 13.6mph 99% 0in -9999.00 watts/m^2
03:14 43.9°F 39.3°F 43.5°F 29.42in 13.6mph 99% 0in -9999.00 watts/m^2
03:19 43.7°F 39.1°F 43.3°F 29.43in 13.6mph 99% 0in -9999.00 watts/m^2
03:24 43.5°F 40.2°F 43.2°F 29.42in 11.9mph 99% 0in -9999.00 watts/m^2
03:29 43°F 38.6°F 42.6°F 29.42in 11.9mph 99% 0in -9999.00 watts/m^2
03:34 42.3°F 38.8°F 41.9°F 29.41in 11.9mph 99% 0in -9999.00 watts/m^2
03:39 41.7°F 37.0°F 41.4°F 29.41in 13mph 99% 0in -9999.00 watts/m^2
03:44 41.2°F 33.8°F 40.8°F 29.40in 13.6mph 99% 0in -9999.00 watts/m^2
03:49 41°F 36.1°F 40.6°F 29.40in 13.6mph 99% 0in -9999.00 watts/m^2
03:54 40.8°F 37.5°F 40.5°F 29.39in 13.6mph 99% 0in -9999.00 watts/m^2
03:59 40.8°F 33.7°F 40.5°F 29.39in 13.6mph 99% 0in -9999.00 watts/m^2
04:04 40.6°F 35.3°F 40.3°F 29.39in 13.6mph 99% 0in -9999.00 watts/m^2
04:09 40.6°F 35.9°F 40.3°F 29.39in 13.6mph 99% 0in -9999.00 watts/m^2
04:14 40.6°F - 40.3°F 29.39in 13.6mph 99% 0in -9999.00 watts/m^2
04:19 40.6°F 36.3°F 40.3°F 29.40in 13.6mph 99% 0in -9999.00 watts/m^2
04:24 40.6°F - 40.3°F 29.40in 13.6mph 99% 0in -9999.00 watts/m^2
04:29 40.5°F - 40.1°F 29.40in 13.6mph 99% 0in -9999.00 watts/m^2
04:34 40.5°F - 40.1°F 29.40in 13.6mph 99% 0in -9999.00 watts/m^2
04:39 40.3°F 37.9°F 39.9°F 29.42in 13.6mph 99% 0in -9999.00 watts/m^2
04:44 40.3°F 35.3°F 39.9°F 29.42in 12.5mph 99% 0in -9999.00 watts/m^2
04:49 40.1°F 33.0°F 39.7°F 29.42in 12.5mph 99% 0in -9999.00 watts/m^2
04:54 40.1°F 32.0°F 39.7°F 29.42in 15mph 99% 0in -9999.00 watts/m^2
04:59 39.9°F - 39.6°F 29.42in 15mph 99% 0in -9999.00 watts/m^2
05:04 39.9°F 35.9°F 39.6°F 29.42in 15mph 99% 0in -9999.00 watts/m^2
05:09 39.9°F 37.4°F 39.6°F 29.42in 15mph 99% 0in -9999.00 watts/m^2
05:14 39.9°F 37.4°F 39.6°F 29.41in 15mph 99% 0in -9999.00 watts/m^2
05:19 39.9°F 33.8°F 39.6°F 29.40in 15mph 99% 0in -9999.00 watts/m^2
05:24 39.7°F 33.6°F 39.4°F 29.40in 15mph 99% 0in -9999.00 watts/m^2
05:29 39.7°F 33.6°F 39.4°F 29.39in 15mph 99% 0in -9999.00 watts/m^2
05:34 39.7°F 34.6°F 39.4°F 29.38in 15mph 99% 0in -9999.00 watts/m^2
05:39 39.6°F 34.4°F 39.2°F 29.39in 15mph 99% 0in -9999.00 watts/m^2
05:44 39.6°F 34.7°F 39.2°F 29.38in 15mph 99% 0in -9999.00 watts/m^2
05:49 39.4°F 35.9°F 39°F 29.36in 15mph 99% 0in -9999.00 watts/m^2
05:54 39.4°F 35.3°F 39°F 29.36in 11.9mph 99% 0in -9999.00 watts/m^2
05:59 39.4°F 35.3°F 39°F 29.34in 15mph 99% 0in -9999.00 watts/m^2
06:04 39.2°F 33.3°F 38.8°F 29.34in 15mph 99% 0in -9999.00 watts/m^2
06:09 39.2°F 31.5°F 38.8°F 29.34in 15mph 99% 0in -9999.00 watts/m^2
06:14 39.2°F - 38.8°F 29.35in 15mph 99% 0in -9999.00 watts/m^2
06:19 39.2°F 32.2°F 38.8°F 29.34in 18.1mph 99% 0in -9999.00 watts/m^2
06:24 39.2°F 32.2°F 38.8°F 29.34in 18.1mph 99% 0in -9999.00 watts/m^2
06:29 39°F 34.9°F 38.7°F 29.35in 18.1mph 99% 0in -9999.00 watts/m^2
06:34 39.2°F 35.1°F 38.8°F 29.34in 18.1mph 99% 0in -9999.00 watts/m^2
06:39 39°F 34.9°F 38.7°F 29.35in 18.1mph 99% 0in -9999.00 watts/m^2
06:44 39°F 34.9°F 38.7°F 29.36in 18.1mph 99% 0in -9999.00 watts/m^2
06:49 39°F 34.9°F 38.7°F 29.37in 18.1mph 99% 0in -9999.00 watts/m^2
06:54 39°F - 38.7°F 29.37in 18.1mph 99% 0in -9999.00 watts/m^2
06:59 39°F - 38.7°F 29.37in 18.1mph 99% 0in -9999.00 watts/m^2
07:04 39.2°F - 38.8°F 29.37in 18.1mph 99% 0in -9999.00 watts/m^2
07:09 39°F - 38.7°F 29.37in 18.1mph 99% 0in -9999.00 watts/m^2
07:14 39°F 36.4°F 38.7°F 29.36in 11.2mph 99% 0in -9999.00 watts/m^2
07:19 39°F 36.4°F 38.7°F 29.36in 11.2mph 99% 0in -9999.00 watts/m^2
07:24 39°F 34.0°F 38.7°F 29.36in 9.8mph 99% 0in -9999.00 watts/m^2
07:29 39°F 32.5°F 38.7°F 29.36in 9.8mph 99% 0in -9999.00 watts/m^2
07:34 39°F 33.7°F 38.7°F 29.36in 9.8mph 99% 0in -9999.00 watts/m^2
07:39 38.8°F - 38.5°F 29.35in 9.8mph 99% 0in -9999.00 watts/m^2
07:44 38.8°F - 38.5°F 29.36in 9.8mph 99% 0in -9999.00 watts/m^2
07:49 38.8°F 35.2°F 38.5°F 29.36in 9.8mph 99% 0in -9999.00 watts/m^2
07:54 38.8°F 34.6°F 38.5°F 29.35in 9.8mph 99% 0in -9999.00 watts/m^2
07:59 38.8°F 33.5°F 38.5°F 29.35in 9.8mph 99% 0in -9999.00 watts/m^2
08:04 38.8°F 36.1°F 38.5°F 29.36in 9.8mph 99% 0in -9999.00 watts/m^2
08:09 38.8°F 36.9°F 38.5°F 29.35in 9.8mph 99% 0in -9999.00 watts/m^2
08:14 38.8°F 36.9°F 38.5°F 29.35in 9.8mph 99% 0in -9999.00 watts/m^2
08:19 38.8°F 36.9°F 38.5°F 29.34in 9.8mph 99% 0in -9999.00 watts/m^2
08:24 38.8°F 32.0°F 38.5°F 29.34in 10.5mph 99% 0in -9999.00 watts/m^2
08:29 38.8°F 35.7°F 38.5°F 29.34in 11.9mph 99% 0in -9999.00 watts/m^2
08:34 38.8°F 32.8°F 38.5°F 29.35in 11.9mph 99% 0in -9999.00 watts/m^2
08:39 39°F 34.9°F 38.7°F 29.34in 11.9mph 99% 0in -9999.00 watts/m^2
08:44 39°F - 38.7°F 29.35in 11.9mph 99% 0in -9999.00 watts/m^2
08:49 39°F - 38.7°F 29.35in 11.9mph 99% 0in -9999.00 watts/m^2
08:54 39°F 34.4°F 38.7°F 29.35in 11.9mph 99% 0in -9999.00 watts/m^2
08:59 39°F 34.4°F 38.7°F 29.34in 11.9mph 99% 0in -9999.00 watts/m^2
09:04 39°F 37.1°F 38.7°F 29.34in 11.9mph 99% 0in -9999.00 watts/m^2
09:09 39°F 33.0°F 38.7°F 29.35in 11.9mph 99% 0in -9999.00 watts/m^2
09:14 39°F 33.0°F 38.7°F 29.35in 11.9mph 99% 0in -9999.00 watts/m^2
09:19 39°F 32.5°F 38.7°F 29.34in 11.9mph 99% 0in -9999.00 watts/m^2
09:24 39.2°F 36.6°F 38.8°F 29.33in 9.8mph 99% 0in -9999.00 watts/m^2
09:29 39.2°F 36.6°F 38.8°F 29.33in 9.8mph 99% 0in -9999.00 watts/m^2
09:34 39°F 32.2°F 38.7°F 29.33in 10.5mph 99% 0in -9999.00 watts/m^2
09:39 39.2°F 35.1°F 38.8°F 29.33in 10.5mph 99% 0in -9999.00 watts/m^2
09:44 39.2°F 35.1°F 38.8°F 29.33in 10.5mph 99% 0in -9999.00 watts/m^2
09:49 39.2°F - 38.8°F 29.34in 10.5mph 99% 0in -9999.00 watts/m^2
09:54 39.2°F 36.6°F 38.8°F 29.33in 10.5mph 99% 0in -9999.00 watts/m^2
09:59 39.2°F 35.6°F 38.8°F 29.33in 11.9mph 99% 0in -9999.00 watts/m^2
10:04 39.4°F - 39°F 29.33in 11.9mph 99% 0in -9999.00 watts/m^2
10:09 39.4°F - 39°F 29.33in 11.9mph 99% 0in -9999.00 watts/m^2
10:14 39.4°F 36.4°F 39°F 29.32in 11.9mph 99% 0in -9999.00 watts/m^2
10:19 39.4°F 34.9°F 39°F 29.31in 11.9mph 99% 0in -9999.00 watts/m^2
10:24 39.4°F 33.5°F 39°F 29.31in 13mph 99% 0in -9999.00 watts/m^2
10:29 39.4°F 36.8°F 39°F 29.30in 13mph 99% 0in -9999.00 watts/m^2
10:34 39.4°F 33.5°F 39°F 29.31in 13mph 99% 0in -9999.00 watts/m^2
10:39 39.4°F 33.5°F 39°F 29.30in 13mph 99% 0in -9999.00 watts/m^2
10:44 39.6°F 33.8°F 39.2°F 29.30in 13mph 99% 0in -9999.00 watts/m^2
10:49 39.6°F 33.8°F 39.2°F 29.30in 13mph 99% 0in -9999.00 watts/m^2
10:54 39.6°F 34.7°F 39.2°F 29.29in 13mph 99% 0in -9999.00 watts/m^2
10:59 39.6°F 34.7°F 39.2°F 29.29in 13mph 99% 0in -9999.00 watts/m^2
11:04 39.6°F - 39.2°F 29.29in 13mph 99% 0in -9999.00 watts/m^2
11:09 39.6°F 36.1°F 39.2°F 29.29in 13mph 99% 0in -9999.00 watts/m^2
11:14 39.6°F 35.6°F 39.2°F 29.28in 8.7mph 99% 0in -9999.00 watts/m^2
11:19 39.6°F - 39.2°F 29.28in 8.7mph 99% 0in -9999.00 watts/m^2
11:24 39.6°F 37.8°F 39.2°F 29.27in 8.7mph 99% 0in -9999.00 watts/m^2
11:29 39.7°F 37.9°F 39.4°F 29.26in 8.7mph 99% 0in -9999.00 watts/m^2
11:34 39.7°F 34.6°F 39.4°F 29.26in 9.4mph 99% 0in -9999.00 watts/m^2
11:39 39.7°F - 39.4°F 29.25in 9.4mph 99% 0in -9999.00 watts/m^2
11:44 39.7°F 36.2°F 39.4°F 29.25in 9.4mph 99% 0in -9999.00 watts/m^2
11:49 39.7°F 31.5°F 39.4°F 29.25in 15mph 99% 0in -9999.00 watts/m^2
11:54 39.9°F 35.5°F 39.6°F 29.25in 15mph 99% 0in -9999.00 watts/m^2
11:59 39.9°F - 39.6°F 29.23in 15mph 99% 0in -9999.00 watts/m^2
12:04 39.9°F 37.4°F 39.6°F 29.22in 15mph 99% 0in -9999.00 watts/m^2
12:09 40.1°F 35.3°F 39.7°F 29.22in 15mph 99% 0in -9999.00 watts/m^2
12:14 40.1°F - 39.7°F 29.22in 15mph 99% 0in -9999.00 watts/m^2
12:19 40.1°F - 39.7°F 29.21in 15mph 99% 0in -9999.00 watts/m^2
12:24 40.1°F 38.4°F 39.7°F 29.22in 15mph 99% 0in -9999.00 watts/m^2
12:29 40.1°F 38.4°F 39.7°F 29.21in 15mph 99% 0in -9999.00 watts/m^2
12:34 40.3°F - 39.9°F 29.21in 15mph 99% 0in -9999.00 watts/m^2
12:39 40.3°F 32.7°F 39.9°F 29.21in 15mph 99% 0in -9999.00 watts/m^2
12:44 40.1°F 33.6°F 39.7°F 29.20in 13.6mph 99% 0in -9999.00 watts/m^2
12:49 40.3°F 37.4°F 39.9°F 29.19in 13.6mph 99% 0in -9999.00 watts/m^2
12:54 40.3°F 36.9°F 39.9°F 29.20in 13.6mph 99% 0in -9999.00 watts/m^2
12:59 40.3°F 34.9°F 39.9°F 29.20in 13.6mph 99% 0in -9999.00 watts/m^2
13:04 40.3°F - 39.9°F 29.19in 13.6mph 99% 0in -9999.00 watts/m^2
13:09 40.3°F 35.6°F 39.9°F 29.20in 13.6mph 99% 0in -9999.00 watts/m^2
13:14 40.3°F - 39.9°F 29.19in 13.6mph 99% 0in -9999.00 watts/m^2
13:19 40.3°F 35.6°F 39.9°F 29.19in 13.6mph 99% 0in -9999.00 watts/m^2
13:24 40.3°F 36.4°F 39.9°F 29.18in 13.6mph 99% 0in -9999.00 watts/m^2
13:29 40.3°F - 39.9°F 29.19in 13.6mph 99% 0in -9999.00 watts/m^2
13:34 40.3°F 36.9°F 39.9°F 29.19in 13mph 99% 0in -9999.00 watts/m^2
13:39 40.3°F 35.9°F 39.9°F 29.18in 13mph 99% 0in -9999.00 watts/m^2
13:44 40.3°F 35.6°F 39.9°F 29.18in 8.1mph 99% 0in -9999.00 watts/m^2
13:49 40.3°F 36.9°F 39.9°F 29.18in 8.1mph 99% 0in -9999.00 watts/m^2
13:54 40.3°F 35.3°F 39.9°F 29.17in 7.4mph 99% 0in -9999.00 watts/m^2
13:59 40.3°F 36.4°F 39.9°F 29.17in 10.5mph 99% 0in -9999.00 watts/m^2
14:04 40.1°F 37.6°F 39.7°F 29.18in 10.5mph 99% 0in -9999.00 watts/m^2
14:09 40.1°F 32.6°F 39.7°F 29.18in 13mph 99% 0in -9999.00 watts/m^2
14:14 40.1°F 36.2°F 39.7°F 29.17in 13mph 99% 0in -9999.00 watts/m^2
14:19 40.1°F 35.3°F 39.7°F 29.17in 13mph 99% 0in -9999.00 watts/m^2
14:24 40.1°F 35.0°F 39.7°F 29.16in 13mph 99% 0in -9999.00 watts/m^2
14:29 40.1°F 36.2°F 39.7°F 29.16in 13mph 99% 0in -9999.00 watts/m^2
14:34 39.9°F 37.4°F 39.6°F 29.16in 13mph 99% 0in -9999.00 watts/m^2
14:39 39.9°F - 39.6°F 29.16in 13mph 99% 0in -9999.00 watts/m^2
14:44 39.9°F 37.4°F 39.6°F 29.16in 13mph 99% 0in -9999.00 watts/m^2
14:49 39.9°F 36.4°F 39.6°F 29.16in 13mph 99% 0in -9999.00 watts/m^2
14:54 39.9°F 35.9°F 39.6°F 29.15in 13mph 99% 0in -9999.00 watts/m^2
14:59 39.9°F 32.8°F 39.6°F 29.15in 13mph 99% 0in -9999.00 watts/m^2
15:04 39.7°F 36.7°F 39.4°F 29.16in 11.9mph 99% 0in -9999.00 watts/m^2
15:09 39.7°F 37.2°F 39.4°F 29.16in 11.9mph 99% 0in -9999.00 watts/m^2
15:14 39.6°F 34.1°F 39.2°F 29.16in 11.9mph 99% 0in -9999.00 watts/m^2
15:19 39.6°F 32.4°F 39.2°F 29.16in 11.9mph 99% 0in -9999.00 watts/m^2
15:24 39.6°F 35.6°F 39.2°F 29.16in 13.6mph 99% 0in -9999.00 watts/m^2
15:29 39.6°F 37.1°F 39.2°F 29.16in 13.6mph 99% 0in -9999.00 watts/m^2
15:34 39.6°F 37.1°F 39.2°F 29.16in 13.6mph 99% 0in -9999.00 watts/m^2
15:39 39.4°F 36.4°F 39°F 29.15in 13.6mph 99% 0in -9999.00 watts/m^2
15:44 39.4°F 36.4°F 39°F 29.15in 13.6mph 99% 0in -9999.00 watts/m^2
15:49 39.4°F 34.9°F 39°F 29.16in 13.6mph 99% 0in -9999.00 watts/m^2
15:54 39.4°F 34.9°F 39°F 29.15in 13.6mph 99% 0in -9999.00 watts/m^2
15:59 39.4°F - 39°F 29.15in 13.6mph 99% 0in -9999.00 watts/m^2
16:04 39.4°F 37.6°F 39°F 29.15in 13.6mph 99% 0in -9999.00 watts/m^2
16:09 39.4°F - 39°F 29.15in 13.6mph 99% 0in -9999.00 watts/m^2
16:14 39.4°F - 39°F 29.15in 13.6mph 99% 0in -9999.00 watts/m^2
16:19 39.4°F 36.8°F 39°F 29.15in 13.6mph 99% 0in -9999.00 watts/m^2
16:24 39.4°F 36.8°F 39°F 29.15in 9.4mph 99% 0in -9999.00 watts/m^2
16:29 39.4°F 36.8°F 39°F 29.15in 9.4mph 99% 0in -9999.00 watts/m^2
16:34 39.4°F 36.8°F 39°F 29.15in 9.4mph 99% 0in -9999.00 watts/m^2
Comma Delimited File
Powered by Weather Underground, Inc.